Decoded Metar for KOLM (OLYMPIA in WA, USA) (IATA:OLM) | Meteo·Mobile Aviation Weather
aviador You're here:

KOLM Decoded Metar

OLYMPIA in WA, USA
Report Time2019-02-16 16:54:00
UTC Time2019-02-16 17:43:52
Flight Rules ifr IFR
WindCalm
Visibility3219 m
Phenomena:Mist
Clouds:Overcast 006 Hf
Ceiling600 ft
Temp02°C (ISA -13)
Dew Point02°C (100% RH)
AAT0.3°C
QNH1010 hPa
Density Alt-1,145 ft
Elevation190 ft
Report Wrong Elevation
Raw Report
KOLM 161654Z 00000KT 2SM BR OVC006 02/02 A2983 RMK AO2 SLP105
T00170017=

Extra information for KOLM:More info

Metar Taf Metar & Taf Last 4 Metars F.Rules Stats Wind Profile Meteogram Temp Stats Airport Information Weather charts Add Link Nearby VenuesMetar ALERT Operation Metar Decoded Social comments

AIRNAV info for KOLM